Observation data for Haskell on 12/07/2018      Previous  Date       Current Mesonet Observations  Soil Data  Daily Summary Page  Observations in Plain Language
KHA1 070600Z 36010KT 04/M02 A3031 RMK A01 T00421015  RH  067%=      5-min Rain = 0
KHA1 070605Z 00009KT 04/M02 A3031 RMK A01 T00421015  RH  067%=      5-min Rain = 0
KHA1 070610Z 36009KT 04/M02 A3031 RMK A01 T00421015  RH  067%=      5-min Rain = 0
KHA1 070615Z 00008KT 04/M02 A3031 RMK A01 T00411015  RH  067%=      5-min Rain = 0
KHA1 070620Z 36006KT 04/M01 A3032 RMK A01 T00421014  RH  068%=      5-min Rain = 0
KHA1 070625Z 36006KT 04/M01 A3032 RMK A01 T00421013  RH  068%=      5-min Rain = 0
KHA1 070630Z 36009KT 04/M01 A3032 RMK A01 T00421013  RH  068%=      5-min Rain = 0
KHA1 070635Z 00009KT 04/M01 A3031 RMK A01 T00411014  RH  068%=      5-min Rain = 0
KHA1 070640Z 35008KT 04/M01 A3032 RMK A01 T00411014  RH  068%=      5-min Rain = 0
KHA1 070645Z 35010KT 04/M02 A3032 RMK A01 T00411015  RH  067%=      5-min Rain = 0
KHA1 070650Z 36010KT 04/M02 A3032 RMK A01 T00411016  RH  067%=      5-min Rain = 0
KHA1 070655Z 36009KT 04/M02 A3032 RMK A01 T00411016  RH  067%=      5-min Rain = 0
KHA1 070700Z 36008KT 04/M02 A3032 RMK A01 T00411015  RH  067%=      5-min Rain = 0
KHA1 070705Z 36009KT 04/M02 A3032 RMK A01 T00401016  RH  067%=      5-min Rain = 0
KHA1 070710Z 35008KT 04/M02 A3032 RMK A01 T00401016  RH  067%=      5-min Rain = 0
KHA1 070715Z 34008KT 04/M02 A3033 RMK A01 T00411016  RH  067%=      5-min Rain = 0
KHA1 070720Z 34007KT 04/M02 A3033 RMK A01 T00411016  RH  067%=      5-min Rain = 0
KHA1 070725Z 35008KT 04/M02 A3032 RMK A01 T00411016  RH  067%=      5-min Rain = 0
KHA1 070730Z 00008KT 04/M02 A3032 RMK A01 T00401017  RH  067%=      5-min Rain = 0
KHA1 070735Z 36008KT 04/M02 A3031 RMK A01 T00401016  RH  068%=      5-min Rain = 0
KHA1 070740Z 35009KT 04/M02 A3031 RMK A01 T00401016  RH  068%=      5-min Rain = 0
KHA1 070745Z 36010KT 04/M02 A303 RMK A01 T00401016  RH  068%=      5-min Rain = 0
KHA1 070750Z 00010KT 04/M02 A303 RMK A01 T00401016  RH  068%=      5-min Rain = 0
KHA1 070755Z 36010KT 04/M02 A303 RMK A01 T00391016  RH  068%=      5-min Rain = 0
KHA1 070800Z 00010KT 04/M02 A303 RMK A01 T00391015  RH  068%=      5-min Rain = 0
KHA1 070805Z 00010KT 04/M02 A303 RMK A01 T00391015  RH  068%=      5-min Rain = 0
KHA1 070810Z 35010KT 04/M02 A303 RMK A01 T00391015  RH  068%=      5-min Rain = 0
KHA1 070815Z 36010KT 04/M02 A303 RMK A01 T00391015  RH  068%=      5-min Rain = 0
KHA1 070820Z 00010KT 04/M02 A303 RMK A01 T00391015  RH  068%=      5-min Rain = 0
KHA1 070825Z 00010KT 04/M02 A303 RMK A01 T00391015  RH  068%=      5-min Rain = 0
KHA1 070830Z 36010KT 04/M02 A303 RMK A01 T00391015  RH  068%=      5-min Rain = 0
KHA1 070835Z 00010KT 04/M02 A3031 RMK A01 T00391016  RH  068%=      5-min Rain = 0
KHA1 070840Z 36009KT 04/M02 A3031 RMK A01 T00391016  RH  068%=      5-min Rain = 0
KHA1 070845Z 35009KT 04/M02 A3031 RMK A01 T00381015  RH  069%=      5-min Rain = 0
KHA1 070850Z 35010KT 04/M02 A3031 RMK A01 T00381016  RH  069%=      5-min Rain = 0
KHA1 070855Z 00010KT 04/M02 A3031 RMK A01 T00381015  RH  069%=      5-min Rain = 0
KHA1 070900Z 01009KT 04/M02 A3031 RMK A01 T00381015  RH  069%=      5-min Rain = 0
KHA1 070905Z 00009KT 04/M01 A3031 RMK A01 T00381014  RH  069%=      5-min Rain = 0
KHA1 070910Z 00009KT 04/M02 A3031 RMK A01 T00371015  RH  069%=      5-min Rain = 0
KHA1 070915Z 00009KT 04/M02 A3031 RMK A01 T00371015  RH  069%=      5-min Rain = 0
KHA1 070920Z 36009KT 04/M01 A3032 RMK A01 T00371014  RH  070%=      5-min Rain = 0
KHA1 070925Z 36009KT 04/M01 A3032 RMK A01 T00371014  RH  070%=      5-min Rain = 0
KHA1 070930Z 36010KT 04/M01 A3032 RMK A01 T00361013  RH  071%=      5-min Rain = 0
KHA1 070935Z 36009KT 04/M01 A3031 RMK A01 T00351012  RH  072%=      5-min Rain = 0
KHA1 070940Z 36009KT 04/M01 A3032 RMK A01 T00351012  RH  072%=      5-min Rain = 0
KHA1 070945Z 00010KT 03/M01 A3032 RMK A01 T00341010  RH  073%=      5-min Rain = 0
KHA1 070950Z 00009KT 03/M01 A3032 RMK A01 T00331009  RH  075%=      5-min Rain = 0
KHA1 070955Z 01008KT 03/M01 A3032 RMK A01 T00321008  RH  076%=      5-min Rain = 0
KHA1 071000Z 36010KT 03/M01 A3032 RMK A01 T00321008  RH  076%=      5-min Rain = 0
KHA1 071005Z 36011KT 03/M01 A3032 RMK A01 T00311006  RH  077%=      5-min Rain = 0
KHA1 071010Z 36011KT 03/M01 A3032 RMK A01 T00311007  RH  077%=      5-min Rain = 0
KHA1 071015Z 35012KT 03/M01 A3032 RMK A01 T00311006  RH  078%=      5-min Rain = 0
KHA1 071020Z 35011KT 03/M00 A3032 RMK A01 T00301004  RH  079%=      5-min Rain = 0
KHA1 071025Z 00011KT 03/M00 A3032 RMK A01 T00291003  RH  080%=      5-min Rain = 0
KHA1 071030Z 36011KT 03/M00 A3032 RMK A01 T00291004  RH  080%=      5-min Rain = 0
KHA1 071035Z 35011KT 03/M01 A3032 RMK A01 T00291005  RH  079%=      5-min Rain = 0
KHA1 071040Z 35011KT 03/M01 A3033 RMK A01 T00301005  RH  079%=      5-min Rain = 0
KHA1 071045Z 35011KT 03/M01 A3033 RMK A01 T00301005  RH  079%=      5-min Rain = 0
KHA1 071050Z 00010KT 03/M01 A3033 RMK A01 T00291006  RH  079%=      5-min Rain = 0
KHA1 071055Z 36013KT 03/M01 A3033 RMK A01 T00291005  RH  079%=      5-min Rain = 0
KHA1 071100Z 00010KT 03/M01 A3033 RMK A01 T00291006  RH  078%=      5-min Rain = 0
KHA1 071105Z 01008KT 03/M01 A3033 RMK A01 T00301007  RH  078%=      5-min Rain = 0
KHA1 071110Z 02009KT 03/M01 A3032 RMK A01 T00291007  RH  078%=      5-min Rain = 0
KHA1 071115Z 02008KT 03/M01 A3032 RMK A01 T00281007  RH  078%=      5-min Rain = 0
KHA1 071120Z 36009KT 03/M01 A3033 RMK A01 T00281008  RH  078%=      5-min Rain = 0
KHA1 071125Z 00008KT 03/M01 A3033 RMK A01 T00291008  RH  078%=      5-min Rain = 0
KHA1 071130Z 36009KT 03/M01 A3033 RMK A01 T00301008  RH  077%=      5-min Rain = 0
KHA1 071135Z 01009KT 03/M01 A3033 RMK A01 T00291009  RH  077%=      5-min Rain = 0
KHA1 071140Z 36011KT 03/M01 A3033 RMK A01 T00291008  RH  077%=      5-min Rain = 0
KHA1 071145Z 36010KT 03/M01 A3033 RMK A01 T00281007  RH  078%=      5-min Rain = 0
KHA1 071150Z 00010KT 03/M01 A3033 RMK A01 T00281007  RH  079%=      5-min Rain = 0
KHA1 071155Z 00009KT 03/M01 A3034 RMK A01 T00271005  RH  080%=      5-min Rain = 0
KHA1 071200Z 01009KT 03/M01 A3033 RMK A01 T00271005  RH  080%=      5-min Rain = 0
KHA1 071205Z 00009KT 03/M01 A3034 RMK A01 T00271005  RH  081%=      5-min Rain = 0
KHA1 071210Z 01010KT 03/M01 A3034 RMK A01 T00271006  RH  080%=      5-min Rain = 0
KHA1 071215Z 01010KT 03/M01 A3034 RMK A01 T00271006  RH  080%=      5-min Rain = 0
KHA1 071220Z 01010KT 03/M01 A3034 RMK A01 T00271005  RH  081%=      5-min Rain = 0
KHA1 071225Z 00010KT 03/M01 A3034 RMK A01 T00261005  RH  081%=      5-min Rain = 0
KHA1 071230Z 00011KT 03/M01 A3034 RMK A01 T00251005  RH  081%=      5-min Rain = 0
KHA1 071235Z 00009KT 03/M00 A3034 RMK A01 T00251004  RH  082%=      5-min Rain = 0
KHA1 071240Z 01008KT 03/M00 A3034 RMK A01 T00251003  RH  083%=      5-min Rain = 0
KHA1 071245Z 03009KT 03/M00 A3033 RMK A01 T00251003  RH  083%=      5-min Rain = 0
KHA1 071250Z 03009KT 02/M00 A3033 RMK A01 T00241002  RH  084%=      5-min Rain = 0
KHA1 071255Z 04008KT 02/00 A3032 RMK A01 T00230002  RH  087%=      5-min Rain = 0.01
KHA1 071300Z 04010KT 02/00 A3033 RMK A01 T00220003  RH  089%=      5-min Rain = 0.01
KHA1 071305Z 04008KT 02/00 A3033 RMK A01 T00220004  RH  089%=      5-min Rain = 0
KHA1 071310Z 06007KT 02/00 A3032 RMK A01 T00210004  RH  090%=      5-min Rain = 0
KHA1 071315Z 07008KT 02/00 A3032 RMK A01 T00210004  RH  089%=      5-min Rain = 0
KHA1 071320Z 08009KT 02/01 A3031 RMK A01 T00210005  RH  090%=      5-min Rain = 0
KHA1 071325Z 09009KT 02/01 A303 RMK A01 T00210005  RH  090%=      5-min Rain = 0
KHA1 071330Z 08008KT 02/01 A303 RMK A01 T00210005  RH  090%=      5-min Rain = 0
KHA1 071335Z 09008KT 02/01 A303 RMK A01 T00210006  RH  091%=      5-min Rain = 0
KHA1 071340Z 11010KT 02/01 A3029 RMK A01 T00210006  RH  091%=      5-min Rain = 0
KHA1 071345Z 09008KT 02/01 A303 RMK A01 T00210006  RH  091%=      5-min Rain = 0
KHA1 071350Z 07007KT 02/01 A3031 RMK A01 T00210006  RH  091%=      5-min Rain = 0.01
KHA1 071355Z 07007KT 02/01 A3031 RMK A01 T00210007  RH  092%=      5-min Rain = 0
KHA1 071400Z 04005KT 02/01 A3032 RMK A01 T00220008  RH  092%=      5-min Rain = 0
KHA1 071405Z 35007KT 02/01 A3034 RMK A01 T00220008  RH  092%=      5-min Rain = 0.01
KHA1 071410Z 35008KT 02/01 A3034 RMK A01 T00220009  RH  093%=      5-min Rain = 0
KHA1 071415Z 36008KT 02/01 A3034 RMK A01 T00220010  RH  093%=      5-min Rain = 0
KHA1 071420Z 35007KT 02/01 A3035 RMK A01 T00220011  RH  094%=      5-min Rain = 0
KHA1 071425Z 35009KT 02/01 A3034 RMK A01 T00220011  RH  094%=      5-min Rain = 0
KHA1 071430Z 35008KT 02/01 A3034 RMK A01 T00220011  RH  094%=      5-min Rain = 0
KHA1 071435Z 35008KT 02/01 A3034 RMK A01 T00220011  RH  094%=      5-min Rain = 0
KHA1 071440Z 36008KT 02/01 A3034 RMK A01 T00220011  RH  094%=      5-min Rain = 0
KHA1 071445Z 36009KT 02/01 A3034 RMK A01 T00220011  RH  094%=      5-min Rain = 0
KHA1 071450Z 36008KT 02/01 A3034 RMK A01 T00230012  RH  094%=      5-min Rain = 0
KHA1 071455Z 00009KT 02/01 A3034 RMK A01 T00220011  RH  094%=      5-min Rain = 0
KHA1 071500Z 00009KT 02/01 A3035 RMK A01 T00230011  RH  093%=      5-min Rain = 0
KHA1 071505Z 00009KT 02/01 A3035 RMK A01 T00230012  RH  094%=      5-min Rain = 0
KHA1 071510Z 01009KT 02/01 A3035 RMK A01 T00230012  RH  094%=      5-min Rain = 0
KHA1 071515Z 00009KT 02/01 A3035 RMK A01 T00230012  RH  093%=      5-min Rain = 0.01
KHA1 071520Z 01010KT 02/01 A3035 RMK A01 T00230012  RH  093%=      5-min Rain = 0
KHA1 071525Z 01010KT 02/01 A3035 RMK A01 T00230012  RH  094%=      5-min Rain = 0
KHA1 071530Z 01009KT 02/01 A3035 RMK A01 T00230012  RH  094%=      5-min Rain = 0.02
KHA1 071535Z 01009KT 02/01 A3036 RMK A01 T00230013  RH  094%=      5-min Rain = 0
KHA1 071540Z 01010KT 02/01 A3036 RMK A01 T00220013  RH  095%=      5-min Rain = 0.01
KHA1 071545Z 01010KT 02/01 A3036 RMK A01 T00230013  RH  095%=      5-min Rain = 0
KHA1 071550Z 02010KT 02/01 A3036 RMK A01 T00230013  RH  094%=      5-min Rain = 0
KHA1 071555Z 01009KT 02/01 A3036 RMK A01 T00230013  RH  095%=      5-min Rain = 0.01
KHA1 071600Z 01009KT 02/01 A3036 RMK A01 T00230014  RH  095%=      5-min Rain = 0.01
KHA1 071605Z 01009KT 02/01 A3037 RMK A01 T00220013  RH  095%=      5-min Rain = 0
KHA1 071610Z 01010KT 02/01 A3037 RMK A01 T00220013  RH  095%=      5-min Rain = 0.01
KHA1 071615Z 01008KT 02/01 A3037 RMK A01 T00230014  RH  095%=      5-min Rain = 0.01
KHA1 071620Z 01008KT 02/02 A3038 RMK A01 T00240015  RH  095%=      5-min Rain = 0
KHA1 071625Z 01008KT 02/02 A3038 RMK A01 T00240015  RH  095%=      5-min Rain = 0
KHA1 071630Z 01008KT 02/01 A3038 RMK A01 T00240014  RH  095%=      5-min Rain = 0.01
KHA1 071635Z 00008KT 02/01 A3038 RMK A01 T00240014  RH  094%=      5-min Rain = 0
KHA1 071640Z 01009KT 02/01 A3038 RMK A01 T00240014  RH  094%=      5-min Rain = 0.01
KHA1 071645Z 01009KT 02/01 A3038 RMK A01 T00240013  RH  094%=      5-min Rain = 0
KHA1 071650Z 01008KT 02/01 A3038 RMK A01 T00240014  RH  094%=      5-min Rain = 0.01
KHA1 071655Z 01009KT 02/01 A3038 RMK A01 T00240014  RH  095%=      5-min Rain = 0.01
KHA1 071700Z 01009KT 02/01 A3038 RMK A01 T00230013  RH  095%=      5-min Rain = 0.01
KHA1 071705Z 01009KT 02/01 A3038 RMK A01 T00230014  RH  095%=      5-min Rain = 0.01
KHA1 071710Z 02010KT 02/01 A3038 RMK A01 T00230014  RH  095%=      5-min Rain = 0.01
KHA1 071715Z 02011KT 02/01 A3037 RMK A01 T00230013  RH  095%=      5-min Rain = 0.01
KHA1 071720Z 01011KT 02/01 A3037 RMK A01 T00230013  RH  095%=      5-min Rain = 0.01
KHA1 071725Z 02010KT 02/01 A3036 RMK A01 T00230014  RH  095%=      5-min Rain = 0.01
KHA1 071730Z 02010KT 02/01 A3036 RMK A01 T00230013  RH  094%=      5-min Rain = 0.01
KHA1 071735Z 02010KT 02/02 A3035 RMK A01 T00240015  RH  095%=      5-min Rain = 0
KHA1 071740Z 02009KT 02/02 A3035 RMK A01 T00240015  RH  095%=      5-min Rain = 0.01
KHA1 071745Z 02009KT 02/02 A3034 RMK A01 T00240015  RH  095%=      5-min Rain = 0
KHA1 071750Z 02011KT 02/01 A3034 RMK A01 T00230014  RH  095%=      5-min Rain = 0
KHA1 071755Z 01010KT 02/01 A3034 RMK A01 T00240014  RH  095%=      5-min Rain = 0
KHA1 071800Z 01010KT 02/01 A3034 RMK A01 T00240013  RH  094%=      5-min Rain = 0
KHA1 071805Z 01010KT 02/01 A3033 RMK A01 T00240012  RH  093%=      5-min Rain = 0
KHA1 071810Z 02010KT 02/01 A3033 RMK A01 T00240014  RH  094%=      5-min Rain = 0.01
KHA1 071815Z 02010KT 03/01 A3032 RMK A01 T00250014  RH  094%=      5-min Rain = 0
KHA1 071820Z 01010KT 02/01 A3033 RMK A01 T00240013  RH  094%=      5-min Rain = 0
KHA1 071825Z 01011KT 02/01 A3032 RMK A01 T00230012  RH  094%=      5-min Rain = 0
KHA1 071830Z 01010KT 02/01 A3032 RMK A01 T00230013  RH  094%=      5-min Rain = 0
KHA1 071835Z 02011KT 02/01 A3031 RMK A01 T00220012  RH  094%=      5-min Rain = 0
KHA1 071840Z 01011KT 02/01 A303 RMK A01 T00220012  RH  094%=      5-min Rain = 0.01
KHA1 071845Z 01011KT 02/01 A303 RMK A01 T00220012  RH  095%=      5-min Rain = 0
KHA1 071850Z 02011KT 02/01 A303 RMK A01 T00220012  RH  094%=      5-min Rain = 0
KHA1 071855Z 01010KT 02/01 A303 RMK A01 T00230013  RH  095%=      5-min Rain = 0
KHA1 071900Z 01009KT 02/01 A303 RMK A01 T00230014  RH  095%=      5-min Rain = 0.01
KHA1 071905Z 00009KT 02/01 A303 RMK A01 T00220013  RH  095%=      5-min Rain = 0
KHA1 071910Z 36010KT 02/01 A303 RMK A01 T00210012  RH  095%=      5-min Rain = 0.01
KHA1 071915Z 00010KT 02/01 A303 RMK A01 T00200012  RH  095%=      5-min Rain = 0.01
KHA1 071920Z 00011KT 02/01 A303 RMK A01 T00200012  RH  096%=      5-min Rain = 0
KHA1 071925Z 36011KT 02/01 A303 RMK A01 T00190010  RH  095%=      5-min Rain = 0
KHA1 071930Z 00011KT 02/01 A3029 RMK A01 T00190010  RH  095%=      5-min Rain = 0.01
KHA1 071935Z 01011KT 02/01 A3029 RMK A01 T00190009  RH  095%=      5-min Rain = 0
KHA1 071940Z 01010KT 02/01 A3029 RMK A01 T00190009  RH  094%=      5-min Rain = 0.01
KHA1 071945Z 01010KT 02/01 A3028 RMK A01 T00190010  RH  095%=      5-min Rain = 0
KHA1 071950Z 02009KT 02/01 A3028 RMK A01 T00190011  RH  095%=      5-min Rain = 0.01
KHA1 071955Z 02010KT 02/01 A3028 RMK A01 T00190010  RH  095%=      5-min Rain = 0
KHA1 072000Z 02011KT 02/01 A3028 RMK A01 T00190010  RH  095%=      5-min Rain = 0
KHA1 072005Z 02011KT 02/01 A3028 RMK A01 T00190010  RH  095%=      5-min Rain = 0.01
KHA1 072010Z 02011KT 02/01 A3028 RMK A01 T00200010  RH  095%=      5-min Rain = 0
KHA1 072015Z 02010KT 02/01 A3028 RMK A01 T00200011  RH  095%=      5-min Rain = 0
KHA1 072020Z 02010KT 02/01 A3028 RMK A01 T00190010  RH  095%=      5-min Rain = 0
KHA1 072025Z 01012KT 02/01 A3027 RMK A01 T00190010  RH  095%=      5-min Rain = 0
KHA1 072030Z 02012KT 02/01 A3027 RMK A01 T00190009  RH  094%=      5-min Rain = 0
KHA1 072035Z 02012KT 02/01 A3028 RMK A01 T00190008  RH  094%=      5-min Rain = 0.01
KHA1 072040Z 02012KT 02/01 A3027 RMK A01 T00190008  RH  094%=      5-min Rain = 0
KHA1 072045Z 02012KT 02/01 A3027 RMK A01 T00190009  RH  094%=      5-min Rain = 0
KHA1 072050Z 02011KT 02/01 A3027 RMK A01 T00190009  RH  094%=      5-min Rain = 0
KHA1 072055Z 01011KT 02/01 A3028 RMK A01 T00190009  RH  094%=      5-min Rain = 0
KHA1 072100Z 01012KT 02/01 A3027 RMK A01 T00180009  RH  095%=      5-min Rain = 0
KHA1 072105Z 01011KT 02/01 A3027 RMK A01 T00180009  RH  095%=      5-min Rain = 0
KHA1 072110Z 01012KT 02/01 A3027 RMK A01 T00170009  RH  095%=      5-min Rain = 0
KHA1 072115Z 01011KT 02/01 A3027 RMK A01 T00170009  RH  095%=      5-min Rain = 0
KHA1 072120Z 01012KT 02/01 A3027 RMK A01 T00160007  RH  095%=      5-min Rain = 0
KHA1 072125Z 01011KT 02/01 A3027 RMK A01 T00160007  RH  095%=      5-min Rain = 0
KHA1 072130Z 01012KT 02/01 A3027 RMK A01 T00160008  RH  095%=      5-min Rain = 0
KHA1 072135Z 00012KT 02/01 A3027 RMK A01 T00160008  RH  095%=      5-min Rain = 0
KHA1 072140Z 00011KT 02/01 A3027 RMK A01 T00160008  RH  095%=      5-min Rain = 0
KHA1 072145Z 36012KT 02/01 A3028 RMK A01 T00150007  RH  095%=      5-min Rain = 0
KHA1 072150Z 00011KT 02/01 A3028 RMK A01 T00150007  RH  095%=      5-min Rain = 0
KHA1 072155Z 00012KT 02/01 A3028 RMK A01 T00150007  RH  095%=      5-min Rain = 0.01
KHA1 072200Z 01011KT 02/01 A3027 RMK A01 T00150007  RH  095%=      5-min Rain = 0
KHA1 072205Z 01012KT 02/01 A3027 RMK A01 T00150007  RH  095%=      5-min Rain = 0
KHA1 072210Z 01011KT 02/01 A3027 RMK A01 T00150007  RH  096%=      5-min Rain = 0
KHA1 072215Z 00012KT 01/01 A3027 RMK A01 T00140006  RH  096%=      5-min Rain = 0
KHA1 072220Z 01011KT 01/01 A3027 RMK A01 T00140006  RH  096%=      5-min Rain = 0.01
KHA1 072225Z 01013KT 01/01 A3026 RMK A01 T00140006  RH  095%=      5-min Rain = 0
KHA1 072230Z 01012KT 01/01 A3026 RMK A01 T00140006  RH  096%=      5-min Rain = 0
KHA1 072235Z 00012KT 01/01 A3026 RMK A01 T00140007  RH  096%=      5-min Rain = 0
KHA1 072240Z 01014KT 01/01 A3026 RMK A01 T00140006  RH  096%=      5-min Rain = 0
KHA1 072245Z 01014KT 01/00 A3025 RMK A01 T00130004  RH  095%=      5-min Rain = 0
KHA1 072250Z 01013KT 01/01 A3025 RMK A01 T00130005  RH  096%=      5-min Rain = 0
KHA1 072255Z 01014KT 01/01 A3025 RMK A01 T00130005  RH  095%=      5-min Rain = 0
KHA1 072300Z 01014KT 01/00 A3025 RMK A01 T00130004  RH  095%=      5-min Rain = 0
KHA1 072305Z 01014KT 01/01 A3025 RMK A01 T00130005  RH  096%=      5-min Rain = 0
KHA1 072310Z 01014KT 01/01 A3025 RMK A01 T00130005  RH  096%=      5-min Rain = 0
KHA1 072315Z 01013G18KT 01/01 A3025 RMK A01 T00130005  RH  096%=      5-min Rain = 0
KHA1 072320Z 02013KT 01/01 A3026 RMK A01 T00130005  RH  096%=      5-min Rain = 0
KHA1 072325Z 01013KT 01/01 A3026 RMK A01 T00140006  RH  096%=      5-min Rain = 0
KHA1 072330Z 01012G17KT 01/01 A3026 RMK A01 T00140006  RH  096%=      5-min Rain = 0
KHA1 072335Z 01014KT 01/01 A3026 RMK A01 T00140005  RH  095%=      5-min Rain = 0
KHA1 072340Z 01013KT 01/01 A3027 RMK A01 T00140006  RH  095%=      5-min Rain = 0
KHA1 072345Z 01012KT 01/01 A3028 RMK A01 T00140006  RH  096%=      5-min Rain = 0
KHA1 072350Z 01012KT 02/01 A3029 RMK A01 T00150006  RH  095%=      5-min Rain = 0
KHA1 072355Z 00013G19KT 02/01 A3029 RMK A01 T00150007  RH  095%=      5-min Rain = 0
KHA1 080000Z 01013KT 02/01 A3029 RMK A01 T00150006  RH  095%=      5-min Rain = 0
KHA1 080005Z 01011KT 02/01 A3029 RMK A01 T00150007  RH  096%=      5-min Rain = 0
KHA1 080010Z 01011KT 02/01 A3029 RMK A01 T00150007  RH  096%=      5-min Rain = 0
KHA1 080015Z 01010KT 01/01 A3029 RMK A01 T00140007  RH  096%=      5-min Rain = 0
KHA1 080020Z 02011KT 01/01 A3029 RMK A01 T00140007  RH  096%=      5-min Rain = 0
KHA1 080025Z 01012KT 01/01 A3029 RMK A01 T00140007  RH  096%=      5-min Rain = 0
KHA1 080030Z 00013KT 01/01 A303 RMK A01 T00130007  RH  096%=      5-min Rain = 0
KHA1 080035Z 01013KT 01/01 A303 RMK A01 T00140006  RH  096%=      5-min Rain = 0
KHA1 080040Z 01012KT 01/01 A303 RMK A01 T00140006  RH  096%=      5-min Rain = 0
KHA1 080045Z 01011KT 01/01 A303 RMK A01 T00140007  RH  096%=      5-min Rain = 0
KHA1 080050Z 01011KT 01/01 A303 RMK A01 T00140007  RH  096%=      5-min Rain = 0
KHA1 080055Z 01012KT 01/01 A303 RMK A01 T00140007  RH  096%=      5-min Rain = 0
KHA1 080100Z 02012KT 01/01 A303 RMK A01 T00140007  RH  096%=      5-min Rain = 0
KHA1 080105Z 03012KT 01/01 A303 RMK A01 T00140006  RH  096%=      5-min Rain = 0
KHA1 080110Z 03011KT 01/01 A303 RMK A01 T00140007  RH  096%=      5-min Rain = 0
KHA1 080115Z 03010KT 01/01 A303 RMK A01 T00140007  RH  097%=      5-min Rain = 0
KHA1 080120Z 03011KT 01/01 A303 RMK A01 T00140007  RH  097%=      5-min Rain = 0
KHA1 080125Z 02011KT 01/01 A303 RMK A01 T00130006  RH  097%=      5-min Rain = 0
KHA1 080130Z 02011KT 01/01 A303 RMK A01 T00120006  RH  096%=      5-min Rain = 0
KHA1 080135Z 02010KT 01/01 A303 RMK A01 T00120005  RH  096%=      5-min Rain = 0
KHA1 080140Z 02010KT 01/01 A303 RMK A01 T00120005  RH  096%=      5-min Rain = 0
KHA1 080145Z 03009KT 01/01 A303 RMK A01 T00120005  RH  097%=      5-min Rain = 0
KHA1 080150Z 02008KT 01/01 A303 RMK A01 T00120006  RH  097%=      5-min Rain = 0.01
KHA1 080155Z 02008KT 01/01 A303 RMK A01 T00130007  RH  097%=      5-min Rain = 0
KHA1 080200Z 02009KT 01/01 A3031 RMK A01 T00130007  RH  097%=      5-min Rain = 0
KHA1 080205Z 01009KT 01/01 A3031 RMK A01 T00120006  RH  097%=      5-min Rain = 0
KHA1 080210Z 01007KT 01/01 A3031 RMK A01 T00130007  RH  097%=      5-min Rain = 0
KHA1 080215Z 01008KT 01/01 A3031 RMK A01 T00130007  RH  097%=      5-min Rain = 0
KHA1 080220Z 01009KT 01/01 A3031 RMK A01 T00130007  RH  097%=      5-min Rain = 0
KHA1 080225Z 01009KT 01/01 A3031 RMK A01 T00130007  RH  097%=      5-min Rain = 0
KHA1 080230Z 02010KT 01/01 A3031 RMK A01 T00130006  RH  097%=      5-min Rain = 0.01
KHA1 080235Z 02010KT 01/01 A3031 RMK A01 T00130006  RH  096%=      5-min Rain = 0
KHA1 080240Z 02010KT 01/01 A3031 RMK A01 T00120005  RH  096%=      5-min Rain = 0.01
KHA1 080245Z 02008KT 01/01 A3031 RMK A01 T00130006  RH  096%=      5-min Rain = 0.01
KHA1 080250Z 02008KT 01/01 A3031 RMK A01 T00130007  RH  097%=      5-min Rain = 0
KHA1 080255Z 02008KT 01/01 A3031 RMK A01 T00130007  RH  097%=      5-min Rain = 0.01
KHA1 080300Z 01008KT 01/01 A3031 RMK A01 T00130007  RH  097%=      5-min Rain = 0.01
KHA1 080305Z 01008KT 01/01 A3031 RMK A01 T00130006  RH  097%=      5-min Rain = 0
KHA1 080310Z 00009KT 01/01 A3031 RMK A01 T00120006  RH  097%=      5-min Rain = 0
KHA1 080315Z 01008KT 01/01 A3031 RMK A01 T00120006  RH  097%=      5-min Rain = 0.01
KHA1 080320Z 01008KT 01/01 A3032 RMK A01 T00120006  RH  097%=      5-min Rain = 0
KHA1 080325Z 01008KT 01/01 A3031 RMK A01 T00130006  RH  097%=      5-min Rain = 0
KHA1 080330Z 01009KT 01/01 A3031 RMK A01 T00120006  RH  097%=      5-min Rain = 0
KHA1 080335Z 01009KT 01/01 A3031 RMK A01 T00120006  RH  097%=      5-min Rain = 0
KHA1 080340Z 01009KT 01/01 A3031 RMK A01 T00120006  RH  097%=      5-min Rain = 0
KHA1 080345Z 01008KT 01/01 A303 RMK A01 T00130006  RH  097%=      5-min Rain = 0.01
KHA1 080350Z 01010KT 01/01 A303 RMK A01 T00120006  RH  097%=      5-min Rain = 0
KHA1 080355Z 01010KT 01/01 A303 RMK A01 T00120006  RH  097%=      5-min Rain = 0
KHA1 080400Z 01010KT 01/01 A303 RMK A01 T00130006  RH  096%=      5-min Rain = 0
KHA1 080405Z 00011KT 01/01 A303 RMK A01 T00120006  RH  096%=      5-min Rain = 0
KHA1 080410Z 01011KT 01/01 A303 RMK A01 T00120005  RH  096%=      5-min Rain = 0
KHA1 080415Z 01011KT 01/01 A303 RMK A01 T00120005  RH  096%=      5-min Rain = 0.01
KHA1 080420Z 00009KT 01/01 A303 RMK A01 T00130006  RH  096%=      5-min Rain = 0
KHA1 080425Z 01010KT 01/01 A303 RMK A01 T00120005  RH  096%=      5-min Rain = 0
KHA1 080430Z 00010KT 01/01 A303 RMK A01 T00120005  RH  096%=      5-min Rain = 0
KHA1 080435Z 01011KT 01/00 A303 RMK A01 T00120004  RH  096%=      5-min Rain = 0
KHA1 080440Z 01010KT 01/00 A303 RMK A01 T00120004  RH  096%=      5-min Rain = 0
KHA1 080445Z 01011KT 01/00 A303 RMK A01 T00120004  RH  096%=      5-min Rain = 0
KHA1 080450Z 01010KT 01/00 A303 RMK A01 T00120004  RH  096%=      5-min Rain = 0
KHA1 080455Z 01011KT 01/00 A303 RMK A01 T00120003  RH  095%=      5-min Rain = 0.01
KHA1 080500Z 01013KT 01/00 A3029 RMK A01 T00110002  RH  095%=      5-min Rain = 0
KHA1 080505Z 01011KT 01/00 A3029 RMK A01 T00110002  RH  095%=      5-min Rain = 0
KHA1 080510Z 01011KT 01/00 A3029 RMK A01 T00110003  RH  096%=      5-min Rain = 0
KHA1 080515Z 01012KT 01/00 A3029 RMK A01 T00110003  RH  096%=      5-min Rain = 0
KHA1 080520Z 01011KT 01/00 A3029 RMK A01 T00100003  RH  096%=      5-min Rain = 0
KHA1 080525Z 01011KT 01/00 A3028 RMK A01 T00110003  RH  096%=      5-min Rain = 0
KHA1 080530Z 02010KT 01/00 A3028 RMK A01 T00110003  RH  096%=      5-min Rain = 0
KHA1 080535Z 01011KT 01/00 A3029 RMK A01 T00100003  RH  096%=      5-min Rain = 0
KHA1 080540Z 01011G16KT 01/00 A3029 RMK A01 T00100003  RH  096%=      5-min Rain = 0.01
KHA1 080545Z 01012KT 01/00 A3029 RMK A01 T00090001  RH  096%=      5-min Rain = 0
KHA1 080550Z 01010KT 01/00 A3029 RMK A01 T00090002  RH  096%=      5-min Rain = 0
KHA1 080555Z 00012G17KT 01/00 A3028 RMK A01 T00090001  RH  096%=      5-min Rain = 0

Page generated in 0.0133 seconds.